Terminal Aerodrome Forecast
Issued by NWS Wilmington, OH

Current Version | Previous Version | Graphics & Text | Print | Product List | Glossary On
Versions: 1 2 3 4 5 6 7 8 9 10 11 12 13 14 15 16 17 18 19 20 21 22 23 24
000
FTUS41 KILN 260532
TAFILN
TAF
KILN 260532Z 2606/2706 VRB04KT P6SM SCT250
      TEMPO 2608/2612 5SM BR
     FM261600 04005KT P6SM SCT035 BKN250
     FM262100 29005KT P6SM BKN040=

USA.gov is the U.S. government's official web portal to all federal, state and local government web resources and services.